createdAt,value
2019-03-03T00:00:19.108Z,7.50
2019-03-03T00:02:46.791Z,7.40
2019-03-03T00:05:14.692Z,7.40
2019-03-03T00:07:42.372Z,7.30
2019-03-03T00:10:10.300Z,7.30
2019-03-03T00:12:38.601Z,7.40
2019-03-03T00:15:06.781Z,7.50
2019-03-03T00:17:34.506Z,7.50
2019-03-03T00:20:02.096Z,7.40
2019-03-03T00:22:29.827Z,7.30
2019-03-03T00:24:57.545Z,7.50
2019-03-03T00:27:25.164Z,7.50
2019-03-03T00:29:52.761Z,7.40
2019-03-03T00:32:20.307Z,7.60
2019-03-03T00:34:47.833Z,7.60
2019-03-03T00:37:44.934Z,7.70
2019-03-03T00:40:31.313Z,7.70
2019-03-03T00:43:17.035Z,7.60
2019-03-03T00:46:02.916Z,7.60
2019-03-03T00:48:36.866Z,7.40
2019-03-03T00:51:14.041Z,7.50
2019-03-03T00:54:00.171Z,7.60
2019-03-03T00:56:32.450Z,7.60
2019-03-03T00:59:17.926Z,7.60
2019-03-03T01:02:04.670Z,7.60
2019-03-03T01:04:53.902Z,7.60
2019-03-03T01:07:33.808Z,7.70
2019-03-03T01:10:23.813Z,7.70
2019-03-03T01:12:58.623Z,7.60
2019-03-03T01:15:44.366Z,7.50
2019-03-03T01:18:30.377Z,7.60
2019-03-03T01:21:06.659Z,7.50
2019-03-03T01:24:05.797Z,7.40
2019-03-03T01:26:33.357Z,7.60
2019-03-03T01:29:01.322Z,7.60
2019-03-03T01:31:28.904Z,7.70
2019-03-03T01:33:56.744Z,7.70
2019-03-03T01:36:24.269Z,7.70
2019-03-03T01:38:51.851Z,7.70
2019-03-03T01:41:21.494Z,7.70
2019-03-03T01:47:29.691Z,7.70
2019-03-03T01:49:57.464Z,7.80
2019-03-03T01:52:24.811Z,7.70
2019-03-03T01:54:52.171Z,7.80
2019-03-03T01:57:20.238Z,7.70
2019-03-03T01:59:47.591Z,7.70
2019-03-03T02:02:14.935Z,7.80
2019-03-03T02:04:42.407Z,7.80
2019-03-03T02:07:09.733Z,7.80
2019-03-03T02:09:37.370Z,7.90
2019-03-03T02:12:05.072Z,7.80
2019-03-03T02:14:32.753Z,7.80
2019-03-03T02:17:00.181Z,7.80
2019-03-03T02:19:27.516Z,7.90
2019-03-03T02:21:54.876Z,7.90
2019-03-03T02:24:22.272Z,7.90
2019-03-03T02:26:49.999Z,8.00
2019-03-03T02:29:18.039Z,7.90
2019-03-03T02:31:45.586Z,7.90
2019-03-03T02:34:13.312Z,8.00
2019-03-03T02:36:41.100Z,8.00
2019-03-03T02:39:16.075Z,7.90
2019-03-03T02:41:43.502Z,7.90
2019-03-03T02:44:11.114Z,8.00
2019-03-03T02:46:38.588Z,8.00
2019-03-03T02:49:09.090Z,8.00
2019-03-03T02:51:37.036Z,8.00
2019-03-03T02:54:04.745Z,8.00
2019-03-03T02:56:32.113Z,8.10
2019-03-03T02:59:00.083Z,8.10
2019-03-03T03:01:32.149Z,8.00
2019-03-03T03:03:59.790Z,8.00
2019-03-03T03:06:47.797Z,8.10
2019-03-03T03:09:21.569Z,8.10
2019-03-03T03:18:03.207Z,8.10
2019-03-03T03:20:48.990Z,8.00
2019-03-03T03:23:24.935Z,8.10
2019-03-03T03:26:07.990Z,8.10
2019-03-03T03:28:56.240Z,8.10
2019-03-03T03:31:30.466Z,8.10
2019-03-03T03:34:35.769Z,8.10
2019-03-03T03:37:25.888Z,8.10
2019-03-03T03:40:07.248Z,8.10
2019-03-03T03:42:41.503Z,8.10
2019-03-03T03:45:34.897Z,8.10
2019-03-03T03:48:12.530Z,8.00
2019-03-03T03:50:58.392Z,8.10
2019-03-03T03:53:44.635Z,8.00
2019-03-03T03:56:49.710Z,8.10
2019-03-03T03:59:23.185Z,8.10
2019-03-03T04:02:19.527Z,8.00
2019-03-03T04:04:59.229Z,8.00
2019-03-03T04:08:01.743Z,8.10
2019-03-03T04:10:35.824Z,8.00
2019-03-03T04:13:26.735Z,8.00
2019-03-03T04:16:12.313Z,8.00
2019-03-03T04:18:59.272Z,8.00
2019-03-03T04:21:49.022Z,7.90
2019-03-03T04:24:34.583Z,7.80
2019-03-03T04:27:28.204Z,8.00
2019-03-03T04:30:27.662Z,8.00
2019-03-03T04:33:05.682Z,7.90
2019-03-03T04:36:01.700Z,7.90
2019-03-03T04:38:49.249Z,7.90
2019-03-03T04:41:38.879Z,7.80
2019-03-03T04:44:14.976Z,7.70
2019-03-03T04:46:52.632Z,7.80
2019-03-03T04:49:38.242Z,7.90
2019-03-03T04:52:15.108Z,7.90
2019-03-03T04:54:52.885Z,8.00
2019-03-03T04:57:45.925Z,8.00
2019-03-03T05:00:33.033Z,8.10
2019-03-03T05:03:16.553Z,8.00
2019-03-03T05:05:59.666Z,8.00
2019-03-03T05:08:33.707Z,8.00
2019-03-03T05:11:28.153Z,8.00
2019-03-03T05:14:21.456Z,8.00
2019-03-03T05:16:55.738Z,8.00
2019-03-03T05:19:27.050Z,8.00
2019-03-03T05:21:54.968Z,8.10
2019-03-03T05:24:22.587Z,8.00
2019-03-03T05:26:50.340Z,7.90
2019-03-03T05:29:17.709Z,7.80
2019-03-03T05:31:45.364Z,7.90
2019-03-03T05:34:13.207Z,7.90
2019-03-03T05:36:41.346Z,8.00
2019-03-03T05:39:09.562Z,7.90
2019-03-03T05:41:37.362Z,7.90
2019-03-03T05:44:04.816Z,7.80
2019-03-03T05:46:32.127Z,7.90
2019-03-03T05:48:59.628Z,7.90
2019-03-03T05:51:27.725Z,7.90
2019-03-03T05:53:55.807Z,8.10
2019-03-03T05:56:23.156Z,8.10
2019-03-03T05:58:50.818Z,8.00
2019-03-03T06:01:18.653Z,8.10
2019-03-03T06:03:46.450Z,8.10
2019-03-03T06:06:14.524Z,8.10
2019-03-03T06:08:42.606Z,8.00
2019-03-03T06:11:10.376Z,8.00
2019-03-03T06:13:38.119Z,8.10
2019-03-03T06:16:05.892Z,8.00
2019-03-03T06:18:33.303Z,8.00
2019-03-03T06:21:01.170Z,7.90
2019-03-03T06:23:29.180Z,8.00
2019-03-03T06:25:57.073Z,8.00
2019-03-03T06:28:24.818Z,8.10
2019-03-03T06:30:52.511Z,8.10
2019-03-03T06:33:20.237Z,8.10
2019-03-03T06:35:47.622Z,8.00
2019-03-03T06:38:14.979Z,8.10
2019-03-03T06:40:42.342Z,8.10
2019-03-03T06:43:10.381Z,8.10
2019-03-03T06:45:38.156Z,8.10
2019-03-03T06:48:05.801Z,8.10
2019-03-03T06:50:33.143Z,8.20
2019-03-03T06:53:00.548Z,8.20
2019-03-03T06:55:28.704Z,8.20
2019-03-03T06:57:56.657Z,8.30
2019-03-03T07:00:24.016Z,8.20
2019-03-03T07:02:51.480Z,8.30
2019-03-03T07:05:19.672Z,8.30
2019-03-03T07:07:47.024Z,8.40
2019-03-03T07:10:14.408Z,8.40
2019-03-03T07:12:41.866Z,8.40
2019-03-03T07:15:11.948Z,8.50
2019-03-03T07:17:40.111Z,8.50
2019-03-03T07:20:09.501Z,8.40
2019-03-03T07:22:37.370Z,8.50
2019-03-03T07:25:06.465Z,8.60
2019-03-03T07:27:34.142Z,8.60
2019-03-03T07:30:01.747Z,8.50
2019-03-03T07:32:29.182Z,8.60
2019-03-03T07:34:57.329Z,8.70
2019-03-03T07:37:26.015Z,8.70
2019-03-03T07:39:53.768Z,8.70
2019-03-03T07:42:21.849Z,8.70
2019-03-03T07:44:49.216Z,8.60
2019-03-03T07:47:17.172Z,8.60
2019-03-03T07:49:44.585Z,8.60
2019-03-03T07:52:12.025Z,8.70
2019-03-03T07:54:39.748Z,8.60
2019-03-03T07:57:07.195Z,8.70
2019-03-03T07:59:34.681Z,8.60
2019-03-03T08:02:02.334Z,8.60
2019-03-03T08:04:30.388Z,8.70
2019-03-03T08:06:58.221Z,8.70
2019-03-03T08:09:26.014Z,8.70
2019-03-03T08:11:53.689Z,8.70
2019-03-03T08:14:21.163Z,8.70
2019-03-03T08:16:48.693Z,8.70
2019-03-03T08:19:16.623Z,8.80
2019-03-03T08:21:43.976Z,8.80
2019-03-03T08:24:11.352Z,8.80
2019-03-03T08:26:38.738Z,8.90
2019-03-03T08:29:06.398Z,8.90
2019-03-03T08:31:34.558Z,8.90
2019-03-03T08:34:02.559Z,8.90
2019-03-03T08:36:30.753Z,8.90
2019-03-03T08:38:58.800Z,8.90
2019-03-03T08:41:26.166Z,8.90
2019-03-03T08:44:04.163Z,8.90
2019-03-03T08:46:39.719Z,8.90
2019-03-03T08:49:18.991Z,8.80
2019-03-03T08:52:05.043Z,8.80
2019-03-03T08:54:44.529Z,8.80
2019-03-03T08:57:30.642Z,8.90
2019-03-03T09:00:18.120Z,8.90
2019-03-03T09:03:14.548Z,8.90
2019-03-03T09:06:12.296Z,8.90
2019-03-03T09:09:11.600Z,8.90
2019-03-03T09:11:51.846Z,8.80
2019-03-03T09:14:44.956Z,8.80
2019-03-03T09:17:47.692Z,8.80
2019-03-03T09:20:24.241Z,8.80
2019-03-03T09:23:10.175Z,8.80
2019-03-03T09:26:02.943Z,8.90
2019-03-03T09:28:44.487Z,8.90
2019-03-03T09:31:32.730Z,8.80
2019-03-03T09:34:18.504Z,8.90
2019-03-03T09:37:13.538Z,9.00
2019-03-03T09:40:08.794Z,8.90
2019-03-03T09:42:41.209Z,8.90
2019-03-03T09:45:26.460Z,9.00
2019-03-03T09:48:16.271Z,9.00
2019-03-03T09:51:03.851Z,9.10
2019-03-03T09:53:39.599Z,9.10
2019-03-03T09:56:29.852Z,9.20
2019-03-03T09:59:15.698Z,9.20
2019-03-03T10:01:53.021Z,9.20
2019-03-03T10:04:39.973Z,9.20
2019-03-03T10:07:24.617Z,9.20
2019-03-03T10:10:05.805Z,9.30
2019-03-03T10:12:42.143Z,9.30
2019-03-03T10:15:32.594Z,9.30
2019-03-03T10:18:19.802Z,9.30
2019-03-03T10:21:05.433Z,9.40
2019-03-03T10:23:54.198Z,9.40
2019-03-03T10:26:32.387Z,9.50
2019-03-03T10:29:19.132Z,9.40
2019-03-03T10:32:06.133Z,9.50
2019-03-03T10:35:02.013Z,9.60
2019-03-03T10:37:44.990Z,9.60
2019-03-03T10:40:44.286Z,9.60
2019-03-03T10:43:31.196Z,9.60
2019-03-03T10:46:12.642Z,9.60
2019-03-03T10:48:54.488Z,9.70
2019-03-03T10:51:37.294Z,9.70
2019-03-03T10:54:13.805Z,9.70
2019-03-03T10:56:54.023Z,9.80
2019-03-03T10:59:41.380Z,9.60
2019-03-03T11:02:34.563Z,9.60
2019-03-03T11:05:20.240Z,9.70
2019-03-03T11:08:16.443Z,9.70
2019-03-03T11:10:57.744Z,9.70
2019-03-03T11:13:48.240Z,9.70
2019-03-03T11:16:36.020Z,9.70
2019-03-03T11:19:13.732Z,9.70
2019-03-03T11:22:12.942Z,9.70
2019-03-03T11:24:49.757Z,9.70
2019-03-03T11:27:36.024Z,9.70
2019-03-03T11:30:22.900Z,9.60
2019-03-03T11:33:10.147Z,9.70
2019-03-03T11:35:45.684Z,9.70
2019-03-03T11:38:41.997Z,9.70
2019-03-03T11:41:23.575Z,9.80
2019-03-03T11:43:56.556Z,9.80
2019-03-03T11:46:51.302Z,9.80
2019-03-03T11:49:40.848Z,9.80
2019-03-03T11:52:26.969Z,9.80
2019-03-03T11:55:17.468Z,9.90
2019-03-03T11:58:03.017Z,9.80
2019-03-03T12:00:50.929Z,9.90
2019-03-03T12:03:50.375Z,10.00
2019-03-03T12:06:35.826Z,10.00
2019-03-03T12:09:25.193Z,10.00
2019-03-03T12:12:11.018Z,10.00
2019-03-03T12:15:16.921Z,10.00
2019-03-03T12:17:56.892Z,9.90
2019-03-03T12:20:42.363Z,10.00
2019-03-03T12:23:19.083Z,10.00
2019-03-03T12:26:07.446Z,10.00
2019-03-03T12:29:00.759Z,10.10
2019-03-03T12:31:38.292Z,10.20
2019-03-03T12:34:31.630Z,10.30
2019-03-03T12:37:35.553Z,10.20
2019-03-03T12:40:15.073Z,10.20
2019-03-03T12:43:17.392Z,10.20
2019-03-03T12:46:05.972Z,10.30
2019-03-03T12:48:51.520Z,10.30
2019-03-03T12:51:38.943Z,10.40
2019-03-03T12:54:14.940Z,10.50
2019-03-03T12:57:01.956Z,10.40
2019-03-03T12:59:58.739Z,10.40
2019-03-03T13:02:48.864Z,10.50
2019-03-03T13:05:35.311Z,10.50
2019-03-03T13:08:23.026Z,10.50
2019-03-03T13:10:56.812Z,10.60
2019-03-03T13:13:35.546Z,10.70
2019-03-03T13:16:25.918Z,10.70
2019-03-03T13:19:11.552Z,10.90
2019-03-03T13:21:48.535Z,10.80
2019-03-03T13:24:30.716Z,10.80
2019-03-03T13:27:19.085Z,10.80
2019-03-03T13:30:18.763Z,10.80
2019-03-03T13:33:11.933Z,10.80
2019-03-03T13:35:59.353Z,10.80
2019-03-03T13:38:47.168Z,10.90
2019-03-03T13:41:34.405Z,10.90
2019-03-03T13:44:02.496Z,10.80
2019-03-03T13:46:30.509Z,10.70
2019-03-03T13:48:58.025Z,10.80
2019-03-03T13:51:26.225Z,10.70
2019-03-03T13:53:54.541Z,10.70
2019-03-03T13:56:22.170Z,10.70
2019-03-03T13:58:50.180Z,10.80
2019-03-03T14:01:18.543Z,10.70
2019-03-03T14:03:46.119Z,10.70
2019-03-03T14:06:13.737Z,10.70
2019-03-03T14:08:41.807Z,10.70
2019-03-03T14:11:09.536Z,10.70
2019-03-03T14:13:37.990Z,10.70
2019-03-03T14:16:06.111Z,10.60
2019-03-03T14:18:33.714Z,10.60
2019-03-03T14:21:01.520Z,10.60
2019-03-03T14:23:29.064Z,10.60
2019-03-03T14:25:57.582Z,10.70
2019-03-03T14:28:25.583Z,10.60
2019-03-03T14:30:53.898Z,10.60
2019-03-03T14:33:22.579Z,10.60
2019-03-03T14:35:50.478Z,10.60
2019-03-03T14:38:18.299Z,10.60
2019-03-03T14:40:45.955Z,10.60
2019-03-03T14:43:13.583Z,10.60
2019-03-03T14:45:41.281Z,10.60
2019-03-03T14:48:09.316Z,10.60
2019-03-03T14:50:37.623Z,10.60
2019-03-03T14:53:05.581Z,10.50
2019-03-03T14:55:33.875Z,10.50
2019-03-03T14:58:02.161Z,10.60
2019-03-03T15:00:31.367Z,10.60
2019-03-03T15:03:00.638Z,10.60
2019-03-03T15:05:29.035Z,10.50
2019-03-03T15:07:56.708Z,10.50
2019-03-03T15:10:24.371Z,10.50
2019-03-03T15:12:52.245Z,10.40
2019-03-03T15:15:21.218Z,10.40
2019-03-03T15:17:48.896Z,10.50
2019-03-03T15:20:16.646Z,10.50
2019-03-03T15:22:44.353Z,10.50
2019-03-03T15:25:12.661Z,10.40
2019-03-03T15:27:40.327Z,10.40
2019-03-03T15:30:09.678Z,10.40
2019-03-03T15:32:37.508Z,10.40
2019-03-03T15:35:05.494Z,10.40
2019-03-03T15:37:33.117Z,10.30
2019-03-03T15:40:01.576Z,10.30
2019-03-03T15:42:29.252Z,10.30
2019-03-03T15:44:57.999Z,10.20
2019-03-03T15:47:26.526Z,10.20
2019-03-03T15:49:56.386Z,10.20
2019-03-03T15:52:24.492Z,10.20
2019-03-03T15:54:52.956Z,10.10
2019-03-03T15:57:21.237Z,10.20
2019-03-03T15:59:49.451Z,10.20
2019-03-03T16:02:17.119Z,10.20
2019-03-03T16:04:46.161Z,10.30
2019-03-03T16:07:15.370Z,10.20
2019-03-03T16:09:43.633Z,10.20
2019-03-03T16:12:11.969Z,10.10
2019-03-03T16:14:39.953Z,10.20
2019-03-03T16:17:08.842Z,10.10
2019-03-03T16:19:37.216Z,10.10
2019-03-03T16:22:04.889Z,10.20
2019-03-03T16:24:32.535Z,10.10
2019-03-03T16:27:00.175Z,10.00
2019-03-03T16:29:27.832Z,10.00
2019-03-03T16:31:56.618Z,10.10
2019-03-03T16:34:24.393Z,10.00
2019-03-03T16:36:52.557Z,10.00
2019-03-03T16:39:20.528Z,10.00
2019-03-03T16:41:48.537Z,10.00
2019-03-03T16:44:16.167Z,10.00
2019-03-03T16:46:45.261Z,9.90
2019-03-03T16:49:20.298Z,10.00
2019-03-03T16:51:48.399Z,9.90
2019-03-03T16:54:16.163Z,9.90
2019-03-03T16:56:44.164Z,9.90
2019-03-03T16:59:12.242Z,9.90
2019-03-03T17:01:40.391Z,9.90
2019-03-03T17:04:08.880Z,9.90
2019-03-03T17:06:36.984Z,9.90
2019-03-03T17:09:05.135Z,9.90
2019-03-03T17:11:33.177Z,9.80
2019-03-03T17:14:01.020Z,9.80
2019-03-03T17:16:28.989Z,9.80
2019-03-03T17:18:56.544Z,9.80
2019-03-03T17:21:24.767Z,9.80
2019-03-03T17:23:52.401Z,9.80
2019-03-03T17:26:20.420Z,9.80
2019-03-03T17:28:47.985Z,9.70
2019-03-03T17:31:16.539Z,9.80
2019-03-03T17:33:44.176Z,9.90
2019-03-03T17:36:12.390Z,9.80
2019-03-03T17:38:40.394Z,9.80
2019-03-03T17:41:08.780Z,9.80
2019-03-03T17:43:36.320Z,9.80
2019-03-03T17:46:04.042Z,9.80
2019-03-03T17:48:32.633Z,9.80
2019-03-03T17:51:00.391Z,9.80
2019-03-03T17:53:28.399Z,9.80
2019-03-03T17:55:56.100Z,9.90
2019-03-03T17:58:24.153Z,9.80
2019-03-03T18:00:52.111Z,9.80
2019-03-03T18:03:20.321Z,9.80
2019-03-03T18:05:47.932Z,9.80
2019-03-03T18:08:15.585Z,9.80
2019-03-03T18:10:43.647Z,9.90
2019-03-03T18:13:12.137Z,9.80
2019-03-03T18:15:42.527Z,9.70
2019-03-03T18:18:10.660Z,9.90
2019-03-03T18:20:38.458Z,9.80
2019-03-03T18:23:07.135Z,9.80
2019-03-03T18:25:34.739Z,9.90
2019-03-03T18:28:02.406Z,9.90
2019-03-03T18:30:30.458Z,9.90
2019-03-03T18:33:01.256Z,9.80
2019-03-03T18:35:29.886Z,9.70
2019-03-03T18:37:58.146Z,9.70
2019-03-03T18:40:25.832Z,9.90
2019-03-03T18:42:54.558Z,10.00
2019-03-03T18:45:22.411Z,10.00
2019-03-03T18:47:50.006Z,10.00
2019-03-03T18:50:17.980Z,10.00
2019-03-03T18:52:46.198Z,10.00
2019-03-03T18:55:14.181Z,9.90
2019-03-03T18:57:42.338Z,10.00
2019-03-03T19:00:12.691Z,10.00
2019-03-03T19:02:40.340Z,10.00
2019-03-03T19:05:08.278Z,10.00
2019-03-03T19:07:35.985Z,9.90
2019-03-03T19:10:04.319Z,9.90
2019-03-03T19:12:31.972Z,9.90
2019-03-03T19:14:59.725Z,10.00
2019-03-03T19:17:27.634Z,9.90
2019-03-03T19:19:55.703Z,9.90
2019-03-03T19:22:24.202Z,10.00
2019-03-03T19:24:52.417Z,10.00
2019-03-03T19:27:20.223Z,9.80
2019-03-03T19:29:47.978Z,9.90
2019-03-03T19:32:16.386Z,9.90
2019-03-03T19:34:44.420Z,9.90
2019-03-03T19:37:12.695Z,9.90
2019-03-03T19:39:40.443Z,9.90
2019-03-03T19:42:08.549Z,9.90
2019-03-03T19:44:36.635Z,9.90
2019-03-03T19:47:04.467Z,9.90
2019-03-03T19:49:33.281Z,9.90
2019-03-03T19:52:01.032Z,9.90
2019-03-03T19:54:28.769Z,9.90
2019-03-03T19:56:56.827Z,9.90
2019-03-03T19:59:24.735Z,9.90
2019-03-03T20:01:52.679Z,9.90
2019-03-03T20:04:20.915Z,9.80
2019-03-03T20:06:48.760Z,9.90
2019-03-03T20:09:17.284Z,9.80
2019-03-03T20:11:47.772Z,9.90
2019-03-03T20:14:15.158Z,9.90
2019-03-03T20:16:43.447Z,9.90
2019-03-03T20:19:12.984Z,9.90
2019-03-03T20:21:41.305Z,9.90
2019-03-03T20:24:09.276Z,9.90
2019-03-03T20:26:37.798Z,9.90
2019-03-03T20:29:08.181Z,9.80
2019-03-03T20:31:36.710Z,9.90
2019-03-03T20:34:05.603Z,9.90
2019-03-03T20:36:37.321Z,9.80
2019-03-03T20:39:07.344Z,9.80
2019-03-03T20:41:36.374Z,9.70
2019-03-03T20:44:04.525Z,9.80
2019-03-03T20:46:34.057Z,9.80
2019-03-03T20:49:02.346Z,9.80
2019-03-03T20:51:30.426Z,9.90
2019-03-03T20:53:58.636Z,9.80
2019-03-03T20:56:28.133Z,9.80
2019-03-03T20:58:56.083Z,9.80
2019-03-03T21:01:24.043Z,9.80
2019-03-03T21:03:57.268Z,9.80
2019-03-03T21:06:25.459Z,9.80
2019-03-03T21:08:54.636Z,9.70
2019-03-03T21:11:24.402Z,9.80
2019-03-03T21:13:52.744Z,9.90
2019-03-03T21:16:21.680Z,9.80
2019-03-03T21:18:54.548Z,9.80
2019-03-03T21:21:22.531Z,9.80
2019-03-03T21:23:51.114Z,9.80
2019-03-03T21:26:19.504Z,9.80
2019-03-03T21:28:47.601Z,9.80
2019-03-03T21:31:17.002Z,9.80
2019-03-03T21:33:45.126Z,9.80
2019-03-03T21:36:13.429Z,9.80
2019-03-03T21:38:43.168Z,9.70
2019-03-03T21:41:11.697Z,9.70
2019-03-03T21:43:39.318Z,9.70
2019-03-03T21:46:08.620Z,9.70
2019-03-03T21:48:37.015Z,9.70
2019-03-03T21:51:08.189Z,9.60
2019-03-03T21:53:36.469Z,9.60
2019-03-03T21:56:05.162Z,9.60
2019-03-03T21:58:33.838Z,9.60
2019-03-03T22:01:01.665Z,9.60
2019-03-03T22:03:30.294Z,9.70
2019-03-03T22:05:58.032Z,9.70
2019-03-03T22:08:27.556Z,9.70
2019-03-03T22:10:55.979Z,9.70
2019-03-03T22:13:23.962Z,9.70
2019-03-03T22:15:52.722Z,9.70
2019-03-03T22:18:20.534Z,9.70
2019-03-03T22:20:48.889Z,9.70
2019-03-03T22:23:17.327Z,9.70
2019-03-03T22:25:45.002Z,9.70
2019-03-03T22:28:12.766Z,9.70
2019-03-03T22:30:40.481Z,9.70
2019-03-03T22:33:08.837Z,9.70
2019-03-03T22:35:36.501Z,9.70
2019-03-03T22:38:04.032Z,9.70
2019-03-03T22:40:31.963Z,9.70
2019-03-03T22:42:59.574Z,9.70
2019-03-03T22:45:27.541Z,9.70
2019-03-03T22:47:56.060Z,9.70
2019-03-03T22:50:24.586Z,9.70
2019-03-03T22:52:52.422Z,9.60
2019-03-03T22:55:21.432Z,9.70
2019-03-03T22:57:49.732Z,9.70
2019-03-03T23:00:50.707Z,9.70
2019-03-03T23:03:22.405Z,9.80
2019-03-03T23:06:12.923Z,9.80
2019-03-03T23:09:15.667Z,9.90
2019-03-03T23:12:21.089Z,9.90
2019-03-03T23:15:09.229Z,9.90
2019-03-03T23:18:18.993Z,9.80
2019-03-03T23:20:54.693Z,9.80
2019-03-03T23:23:48.226Z,9.80
2019-03-03T23:26:17.123Z,9.80
2019-03-03T23:28:44.746Z,9.80
2019-03-03T23:31:12.687Z,9.70
2019-03-03T23:33:40.386Z,9.70
2019-03-03T23:36:08.162Z,9.60
2019-03-03T23:38:36.178Z,9.60
2019-03-03T23:41:04.164Z,9.60
2019-03-03T23:43:31.794Z,9.60
2019-03-03T23:45:59.996Z,9.60
2019-03-03T23:48:27.953Z,9.60
2019-03-03T23:50:56.413Z,9.60
2019-03-03T23:53:24.031Z,9.70
2019-03-03T23:55:52.394Z,9.60
2019-03-03T23:58:20.483Z,9.60
